createdAt,value
2023-01-07T00:01:24.004Z,6.40
2023-01-07T00:03:53.297Z,6.40
2023-01-07T00:06:22.920Z,6.40
2023-01-07T00:08:52.091Z,6.40
2023-01-07T00:11:23.075Z,6.40
2023-01-07T00:13:52.706Z,6.40
2023-01-07T00:16:23.811Z,6.40
2023-01-07T00:18:52.683Z,6.40
2023-01-07T00:21:22.047Z,6.50
2023-01-07T00:23:50.563Z,6.50
2023-01-07T00:26:20.183Z,6.50
2023-01-07T00:28:50.111Z,6.50
2023-01-07T00:31:19.518Z,6.50
2023-01-07T00:34:06.349Z,6.50
2023-01-07T00:36:40.272Z,6.50
2023-01-07T00:39:10.952Z,6.50
2023-01-07T00:41:39.032Z,6.50
2023-01-07T00:44:08.107Z,6.50
2023-01-07T00:46:36.086Z,6.40
2023-01-07T00:49:05.622Z,6.40
2023-01-07T00:51:33.550Z,6.40
2023-01-07T00:54:01.370Z,6.40
2023-01-07T00:56:29.330Z,6.40
2023-01-07T00:58:57.687Z,6.40
2023-01-07T01:01:25.879Z,6.50
2023-01-07T01:03:53.963Z,6.50
2023-01-07T01:06:23.164Z,6.50
2023-01-07T01:08:51.543Z,6.50
2023-01-07T01:11:19.466Z,6.60
2023-01-07T01:13:47.660Z,6.60
2023-01-07T01:16:18.037Z,6.60
2023-01-07T01:18:47.083Z,6.70
2023-01-07T01:21:17.051Z,6.70
2023-01-07T01:23:46.685Z,6.70
2023-01-07T01:26:17.095Z,6.70
2023-01-07T01:28:45.955Z,6.70
2023-01-07T01:31:18.174Z,6.70
2023-01-07T01:33:49.446Z,6.70
2023-01-07T01:36:18.375Z,6.80
2023-01-07T01:38:47.544Z,6.80
2023-01-07T01:41:17.266Z,6.80
2023-01-07T01:43:47.386Z,6.90
2023-01-07T01:46:18.913Z,6.90
2023-01-07T01:48:51.309Z,6.90
2023-01-07T01:51:24.847Z,7.00
2023-01-07T01:53:56.340Z,6.90
2023-01-07T01:56:28.623Z,7.00
2023-01-07T01:59:01.094Z,7.00
2023-01-07T02:01:29.484Z,7.00
2023-01-07T02:03:58.867Z,7.00
2023-01-07T02:06:33.317Z,7.00
2023-01-07T02:09:02.780Z,7.10
2023-01-07T02:11:41.538Z,7.10
2023-01-07T02:14:26.806Z,7.10
2023-01-07T02:17:00.849Z,7.10
2023-01-07T02:20:14.839Z,7.20
2023-01-07T02:23:14.350Z,7.20
2023-01-07T02:26:12.249Z,7.20
2023-01-07T02:29:02.400Z,7.30
2023-01-07T02:31:56.250Z,7.30
2023-01-07T02:34:34.283Z,7.30
2023-01-07T02:37:08.947Z,7.40
2023-01-07T02:39:46.123Z,7.40
2023-01-07T02:42:24.344Z,7.40
2023-01-07T02:45:00.499Z,7.50
2023-01-07T02:47:35.131Z,7.50
2023-01-07T02:50:03.679Z,7.50
2023-01-07T02:52:34.442Z,7.50
2023-01-07T02:55:07.644Z,7.50
2023-01-07T02:58:01.874Z,7.50
2023-01-07T03:00:53.667Z,7.50
2023-01-07T03:03:36.593Z,7.50
2023-01-07T03:06:21.572Z,7.50
2023-01-07T03:09:04.082Z,7.50
2023-01-07T03:11:39.488Z,7.60
2023-01-07T03:14:15.401Z,7.60
2023-01-07T03:16:50.197Z,7.60
2023-01-07T03:19:23.365Z,7.50
2023-01-07T03:21:53.350Z,7.50
2023-01-07T03:24:24.239Z,7.50
2023-01-07T03:26:54.954Z,7.60
2023-01-07T03:29:24.166Z,7.60
2023-01-07T03:31:58.484Z,7.60
2023-01-07T03:34:30.572Z,7.70
2023-01-07T03:37:01.011Z,7.70
2023-01-07T03:39:32.045Z,7.70
2023-01-07T03:42:20.118Z,7.80
2023-01-07T03:44:48.040Z,7.80
2023-01-07T03:47:15.968Z,7.80
2023-01-07T03:49:45.383Z,7.80
2023-01-07T03:52:13.536Z,7.90
2023-01-07T03:54:42.006Z,7.90
2023-01-07T03:57:10.214Z,7.90
2023-01-07T03:59:38.203Z,8.00
2023-01-07T04:02:07.123Z,8.00
2023-01-07T04:04:35.175Z,8.00
2023-01-07T04:07:04.746Z,8.10
2023-01-07T04:09:32.976Z,8.10
2023-01-07T04:12:01.272Z,8.20
2023-01-07T04:14:29.287Z,8.20
2023-01-07T04:16:57.269Z,8.30
2023-01-07T04:19:25.200Z,8.30
2023-01-07T04:21:53.156Z,8.40
2023-01-07T04:24:22.445Z,8.40
2023-01-07T04:26:50.812Z,8.40
2023-01-07T04:29:20.968Z,8.50
2023-01-07T04:31:50.228Z,8.50
2023-01-07T04:34:18.496Z,8.50
2023-01-07T04:36:46.342Z,8.60
2023-01-07T04:39:14.389Z,8.60
2023-01-07T04:41:43.744Z,8.70
2023-01-07T04:44:11.708Z,8.70
2023-01-07T04:46:39.573Z,8.70
2023-01-07T04:49:08.064Z,8.70
2023-01-07T04:51:36.574Z,8.70
2023-01-07T04:54:05.633Z,8.70
2023-01-07T04:56:33.468Z,8.70
2023-01-07T04:59:03.280Z,8.70
2023-01-07T05:01:32.631Z,8.70
2023-01-07T05:04:01.179Z,8.80
2023-01-07T05:06:30.075Z,8.70
2023-01-07T05:08:58.449Z,8.80
2023-01-07T05:11:26.541Z,8.80
2023-01-07T05:14:00.300Z,8.80
2023-01-07T05:16:31.931Z,8.80
2023-01-07T05:19:03.809Z,8.80
2023-01-07T05:21:36.444Z,8.80
2023-01-07T05:24:05.046Z,8.80
2023-01-07T05:26:32.843Z,8.90
2023-01-07T05:29:00.889Z,8.90
2023-01-07T05:31:30.773Z,8.90
2023-01-07T05:33:58.705Z,8.90
2023-01-07T05:36:26.597Z,8.90
2023-01-07T05:38:55.718Z,8.90
2023-01-07T05:41:23.592Z,9.00
2023-01-07T05:43:51.745Z,9.00
2023-01-07T05:46:19.908Z,9.10
2023-01-07T05:48:49.230Z,9.00
2023-01-07T05:51:17.185Z,9.10
2023-01-07T05:53:45.113Z,9.00
2023-01-07T05:56:12.921Z,9.10
2023-01-07T05:58:40.763Z,9.10
2023-01-07T06:01:08.644Z,9.10
2023-01-07T06:03:36.857Z,9.10
2023-01-07T06:06:07.898Z,9.20
2023-01-07T06:08:36.384Z,9.20
2023-01-07T06:11:04.951Z,9.20
2023-01-07T06:13:32.933Z,9.20
2023-01-07T06:16:01.360Z,9.20
2023-01-07T06:18:29.471Z,9.20
2023-01-07T06:20:57.334Z,9.20
2023-01-07T06:23:26.780Z,9.30
2023-01-07T06:25:54.663Z,9.30
2023-01-07T06:28:22.538Z,9.30
2023-01-07T06:30:50.515Z,9.40
2023-01-07T06:33:18.913Z,9.40
2023-01-07T06:35:47.244Z,9.40
2023-01-07T06:38:15.140Z,9.40
2023-01-07T06:40:45.325Z,9.40
2023-01-07T06:43:13.295Z,9.40
2023-01-07T06:45:41.717Z,9.40
2023-01-07T06:48:09.680Z,9.40
2023-01-07T06:50:37.476Z,9.50
2023-01-07T06:53:05.638Z,9.50
2023-01-07T06:55:33.476Z,9.50
2023-01-07T06:58:02.703Z,9.50
2023-01-07T07:00:30.605Z,9.50
2023-01-07T07:02:58.645Z,9.60
2023-01-07T07:05:26.776Z,9.60
2023-01-07T07:07:54.677Z,9.60
2023-01-07T07:10:22.630Z,9.70
2023-01-07T07:12:50.537Z,9.70
2023-01-07T07:15:19.919Z,9.70
2023-01-07T07:17:47.790Z,9.70
2023-01-07T07:20:15.795Z,9.70
2023-01-07T07:22:46.199Z,9.70
2023-01-07T07:25:14.127Z,9.70
2023-01-07T07:27:42.073Z,9.80
2023-01-07T07:30:10.865Z,9.70
2023-01-07T07:32:40.128Z,9.80
2023-01-07T07:35:08.721Z,9.80
2023-01-07T07:37:36.673Z,9.80
2023-01-07T07:40:05.105Z,9.80
2023-01-07T07:42:32.980Z,9.80
2023-01-07T07:45:20.871Z,9.80
2023-01-07T07:47:50.060Z,9.90
2023-01-07T07:50:17.989Z,9.90
2023-01-07T07:52:46.065Z,9.90
2023-01-07T07:55:20.742Z,9.90
2023-01-07T07:57:55.017Z,10.00
2023-01-07T08:00:23.141Z,10.00
2023-01-07T08:02:52.358Z,10.00
2023-01-07T08:05:20.564Z,10.10
2023-01-07T08:07:48.376Z,10.10
2023-01-07T08:10:16.221Z,10.10
2023-01-07T08:12:44.036Z,10.10
2023-01-07T08:15:12.311Z,10.10
2023-01-07T08:17:41.249Z,10.20
2023-01-07T08:20:11.981Z,10.20
2023-01-07T08:22:39.980Z,10.20
2023-01-07T08:25:08.597Z,10.20
2023-01-07T08:27:36.506Z,10.30
2023-01-07T08:30:04.791Z,10.30
2023-01-07T08:32:32.685Z,10.30
2023-01-07T08:35:00.566Z,10.30
2023-01-07T08:37:32.167Z,10.30
2023-01-07T08:40:00.050Z,10.40
2023-01-07T08:42:29.301Z,10.30
2023-01-07T08:44:57.184Z,10.30
2023-01-07T08:47:27.143Z,10.30
2023-01-07T08:49:55.230Z,10.40
2023-01-07T08:52:23.138Z,10.40
2023-01-07T08:54:52.696Z,10.40
2023-01-07T08:57:20.559Z,10.40
2023-01-07T08:59:48.431Z,10.40
2023-01-07T09:02:17.891Z,10.40
2023-01-07T09:04:45.770Z,10.40
2023-01-07T09:07:13.694Z,10.50
2023-01-07T09:09:42.945Z,10.50
2023-01-07T09:12:12.181Z,10.50
2023-01-07T09:14:40.113Z,10.60
2023-01-07T09:17:08.088Z,10.60
2023-01-07T09:19:36.019Z,10.60
2023-01-07T09:22:03.886Z,10.60
2023-01-07T09:24:31.713Z,10.60
2023-01-07T09:26:59.553Z,10.60
2023-01-07T09:29:28.751Z,10.70
2023-01-07T09:31:56.762Z,10.70
2023-01-07T09:34:24.707Z,10.70
2023-01-07T09:36:52.580Z,10.60
2023-01-07T09:39:20.450Z,10.60
2023-01-07T09:41:55.911Z,10.60
2023-01-07T09:44:39.704Z,10.60
2023-01-07T09:47:09.731Z,10.60
2023-01-07T09:49:38.009Z,10.60
2023-01-07T09:52:12.575Z,10.70
2023-01-07T09:54:41.928Z,10.70
2023-01-07T09:57:12.595Z,10.70
2023-01-07T09:59:41.824Z,10.70
2023-01-07T10:02:25.461Z,10.70
2023-01-07T10:04:59.593Z,10.70
2023-01-07T10:07:35.357Z,10.70
2023-01-07T10:10:13.429Z,10.70
2023-01-07T10:12:48.882Z,10.70
2023-01-07T10:15:45.803Z,10.70
2023-01-07T10:18:31.479Z,10.80
2023-01-07T10:21:07.189Z,10.90
2023-01-07T10:23:39.575Z,11.00
2023-01-07T10:26:14.541Z,11.00
2023-01-07T10:28:49.737Z,10.90
2023-01-07T10:31:22.258Z,10.90
2023-01-07T10:33:51.181Z,10.90
2023-01-07T10:36:26.133Z,10.90
2023-01-07T10:39:03.144Z,10.90
2023-01-07T10:41:40.691Z,11.00
2023-01-07T10:44:34.005Z,11.00
2023-01-07T10:47:14.317Z,11.10
2023-01-07T10:49:59.412Z,11.10
2023-01-07T10:52:44.122Z,11.20
2023-01-07T10:55:31.590Z,11.20
2023-01-07T10:57:59.546Z,11.20
2023-01-07T11:00:27.601Z,11.10
2023-01-07T11:03:00.287Z,11.10
2023-01-07T11:05:36.750Z,11.10
2023-01-07T11:08:08.853Z,11.20
2023-01-07T11:10:38.674Z,11.20
2023-01-07T11:13:09.966Z,11.30
2023-01-07T11:15:41.887Z,11.30
2023-01-07T11:18:17.565Z,11.30
2023-01-07T11:20:48.421Z,11.30
2023-01-07T11:23:30.842Z,11.30
2023-01-07T11:26:11.692Z,11.30
2023-01-07T11:28:44.648Z,11.30
2023-01-07T11:31:12.527Z,11.40
2023-01-07T11:34:02.008Z,11.30
2023-01-07T11:36:42.253Z,11.30
2023-01-07T11:39:13.294Z,11.40
2023-01-07T11:41:53.569Z,11.30
2023-01-07T11:44:22.025Z,11.30
2023-01-07T11:46:50.301Z,11.30
2023-01-07T11:49:24.927Z,11.40
2023-01-07T11:51:53.310Z,11.40
2023-01-07T11:54:23.636Z,11.40
2023-01-07T11:56:54.122Z,11.40
2023-01-07T11:59:30.123Z,11.50
2023-01-07T12:02:00.402Z,11.50
2023-01-07T12:04:32.264Z,11.50
2023-01-07T12:07:03.375Z,11.60
2023-01-07T12:09:38.122Z,11.50
2023-01-07T12:12:34.760Z,11.60
2023-01-07T12:15:05.735Z,11.60
2023-01-07T12:17:35.690Z,11.50
2023-01-07T12:20:47.323Z,11.60
2023-01-07T12:23:28.608Z,11.60
2023-01-07T12:26:04.313Z,11.60
2023-01-07T12:28:54.438Z,11.50
2023-01-07T12:31:32.269Z,11.60
2023-01-07T12:34:08.682Z,11.60
2023-01-07T12:36:45.338Z,11.50
2023-01-07T12:39:19.366Z,11.40
2023-01-07T12:41:56.717Z,11.50
2023-01-07T12:44:25.020Z,11.40
2023-01-07T12:47:31.120Z,11.50
2023-01-07T12:49:58.523Z,11.40
2023-01-07T12:52:37.541Z,11.40
2023-01-07T12:55:14.659Z,11.40
2023-01-07T12:57:44.067Z,11.50
2023-01-07T13:00:18.193Z,11.50
2023-01-07T13:02:51.858Z,11.50
2023-01-07T13:05:24.578Z,11.50
2023-01-07T13:07:57.763Z,11.50
2023-01-07T13:10:29.108Z,11.50
2023-01-07T13:13:02.255Z,11.60
2023-01-07T13:15:33.620Z,11.50
2023-01-07T13:18:13.565Z,11.50
2023-01-07T13:21:01.822Z,11.50
2023-01-07T13:23:46.086Z,11.50
2023-01-07T13:26:31.015Z,11.50
2023-01-07T13:29:12.367Z,11.50
2023-01-07T13:32:08.724Z,11.50
2023-01-07T13:34:44.896Z,11.50
2023-01-07T13:37:34.403Z,11.50
2023-01-07T13:40:39.536Z,11.40
2023-01-07T13:43:21.035Z,11.40
2023-01-07T13:45:53.004Z,11.40
2023-01-07T13:48:24.880Z,11.30
2023-01-07T13:50:59.380Z,11.40
2023-01-07T13:53:46.763Z,11.40
2023-01-07T13:56:38.288Z,11.30
2023-01-07T13:59:30.841Z,11.30
2023-01-07T14:02:25.411Z,11.20
2023-01-07T14:05:05.755Z,11.20
2023-01-07T14:07:45.645Z,11.20
2023-01-07T14:10:20.276Z,11.20
2023-01-07T14:13:06.097Z,11.20
2023-01-07T14:15:53.849Z,11.20
2023-01-07T14:18:47.056Z,11.20
2023-01-07T14:21:27.553Z,11.20
2023-01-07T14:24:18.787Z,11.10
2023-01-07T14:26:56.409Z,11.20
2023-01-07T14:29:42.071Z,11.10
2023-01-07T14:32:28.018Z,11.10
2023-01-07T14:35:02.760Z,11.10
2023-01-07T14:37:34.394Z,11.10
2023-01-07T14:40:03.299Z,11.00
2023-01-07T14:42:48.928Z,11.00
2023-01-07T14:45:55.767Z,11.00
2023-01-07T14:48:35.852Z,11.00
2023-01-07T14:51:29.927Z,10.90
2023-01-07T14:54:30.834Z,10.90
2023-01-07T14:57:07.363Z,10.90
2023-01-07T15:00:26.415Z,10.90
2023-01-07T15:03:17.905Z,10.90
2023-01-07T15:06:01.731Z,10.80
2023-01-07T15:08:58.810Z,10.80
2023-01-07T15:11:45.140Z,10.80
2023-01-07T15:14:38.856Z,10.80
2023-01-07T15:17:07.775Z,10.80
2023-01-07T15:19:40.194Z,10.80
2023-01-07T15:22:28.373Z,10.80
2023-01-07T15:25:05.286Z,10.80
2023-01-07T15:27:42.644Z,10.80
2023-01-07T15:30:23.131Z,10.80
2023-01-07T15:33:00.007Z,10.80
2023-01-07T15:35:34.399Z,10.80
2023-01-07T15:38:04.989Z,10.80
2023-01-07T15:40:33.108Z,10.70
2023-01-07T15:43:01.244Z,10.70
2023-01-07T15:45:29.817Z,10.70
2023-01-07T15:48:07.723Z,10.80
2023-01-07T15:50:37.678Z,10.70
2023-01-07T15:53:19.509Z,10.60
2023-01-07T15:55:55.040Z,10.60
2023-01-07T15:58:27.716Z,10.60
2023-01-07T16:00:59.347Z,10.60
2023-01-07T16:03:28.667Z,10.50
2023-01-07T16:05:59.624Z,10.50
2023-01-07T16:08:31.937Z,10.50
2023-01-07T16:11:02.752Z,10.50
2023-01-07T16:13:31.855Z,10.60
2023-01-07T16:16:03.123Z,10.60
2023-01-07T16:18:32.251Z,10.60
2023-01-07T16:21:04.670Z,10.60
2023-01-07T16:23:34.721Z,10.60
2023-01-07T16:26:05.812Z,10.50
2023-01-07T16:28:35.936Z,10.50
2023-01-07T16:31:06.674Z,10.50
2023-01-07T16:33:35.649Z,10.50
2023-01-07T16:36:08.202Z,10.50
2023-01-07T16:38:37.503Z,10.50
2023-01-07T16:41:05.677Z,10.50
2023-01-07T16:43:44.922Z,10.40
2023-01-07T16:46:27.331Z,10.40
2023-01-07T16:49:19.467Z,10.50
2023-01-07T16:51:52.096Z,10.40
2023-01-07T16:54:30.108Z,10.40
2023-01-07T16:57:00.281Z,10.40
2023-01-07T16:59:31.053Z,10.40
2023-01-07T17:02:01.222Z,10.50
2023-01-07T17:04:31.008Z,10.40
2023-01-07T17:07:02.387Z,10.40
2023-01-07T17:09:35.726Z,10.40
2023-01-07T17:12:04.952Z,10.40
2023-01-07T17:14:48.758Z,10.40
2023-01-07T17:17:27.918Z,10.40
2023-01-07T17:20:03.557Z,10.40
2023-01-07T17:22:38.005Z,10.40
2023-01-07T17:25:09.864Z,10.40
2023-01-07T17:27:42.782Z,10.40
2023-01-07T17:30:16.970Z,10.40
2023-01-07T17:32:46.511Z,10.40
2023-01-07T17:35:17.837Z,10.40
2023-01-07T17:37:47.044Z,10.40
2023-01-07T17:40:15.425Z,10.40
2023-01-07T17:43:01.806Z,10.40
2023-01-07T17:45:29.745Z,10.40
2023-01-07T17:47:58.790Z,10.40
2023-01-07T17:50:33.396Z,10.40
2023-01-07T17:53:02.889Z,10.30
2023-01-07T17:55:32.739Z,10.30
2023-01-07T17:58:00.599Z,10.30
2023-01-07T18:00:30.629Z,10.30
2023-01-07T18:02:58.838Z,10.20
2023-01-07T18:05:27.628Z,10.20
2023-01-07T18:07:55.616Z,10.10
2023-01-07T18:10:29.339Z,10.10
2023-01-07T18:12:56.257Z,10.10
2023-01-07T18:15:26.457Z,10.00
2023-01-07T18:17:54.368Z,10.00
2023-01-07T18:20:23.486Z,10.00
2023-01-07T18:22:51.557Z,10.00
2023-01-07T18:25:21.131Z,9.90
2023-01-07T18:27:52.619Z,9.90
2023-01-07T18:30:23.189Z,9.90
2023-01-07T18:32:52.884Z,9.80
2023-01-07T18:35:22.618Z,9.70
2023-01-07T18:37:51.183Z,9.70
2023-01-07T18:40:19.586Z,9.70
2023-01-07T18:42:47.522Z,9.60
2023-01-07T18:45:16.693Z,9.60
2023-01-07T18:47:45.843Z,9.60
2023-01-07T18:50:14.124Z,9.50
2023-01-07T18:52:43.223Z,9.50
2023-01-07T18:55:12.487Z,9.50
2023-01-07T18:57:40.312Z,9.50
2023-01-07T19:00:09.621Z,9.40
2023-01-07T19:02:38.808Z,9.40
2023-01-07T19:05:07.554Z,9.40
2023-01-07T19:07:36.071Z,9.40
2023-01-07T19:10:03.908Z,9.30
2023-01-07T19:12:31.822Z,9.30
2023-01-07T19:14:59.637Z,9.30
2023-01-07T19:17:27.567Z,9.30
2023-01-07T19:19:56.764Z,9.30
2023-01-07T19:22:24.663Z,9.30
2023-01-07T19:24:52.661Z,9.30
2023-01-07T19:27:20.598Z,9.30
2023-01-07T19:29:48.458Z,9.40
2023-01-07T19:32:16.480Z,9.40
2023-01-07T19:34:44.323Z,9.30
2023-01-07T19:37:13.542Z,9.30
2023-01-07T19:39:41.355Z,9.30
2023-01-07T19:42:09.873Z,9.30
2023-01-07T19:44:38.333Z,9.30
2023-01-07T19:47:06.319Z,9.40
2023-01-07T19:49:35.620Z,9.30
2023-01-07T19:52:03.553Z,9.30
2023-01-07T19:54:32.711Z,9.20
2023-01-07T19:57:00.726Z,9.20
2023-01-07T19:59:28.606Z,9.20
2023-01-07T20:01:56.870Z,9.10
2023-01-07T20:04:27.191Z,9.10
2023-01-07T20:06:55.320Z,9.10
2023-01-07T20:09:23.255Z,9.00
2023-01-07T20:11:52.637Z,9.00
2023-01-07T20:14:20.466Z,9.00
2023-01-07T20:16:48.343Z,9.00
2023-01-07T20:19:16.356Z,8.90
2023-01-07T20:21:44.197Z,8.90
2023-01-07T20:24:13.524Z,8.90
2023-01-07T20:26:41.603Z,8.90
2023-01-07T20:29:10.877Z,8.90
2023-01-07T20:31:38.860Z,8.90
2023-01-07T20:34:07.714Z,8.90
2023-01-07T20:36:35.646Z,8.80
2023-01-07T20:39:05.762Z,8.80
2023-01-07T20:41:35.546Z,8.80
2023-01-07T20:44:05.307Z,8.80
2023-01-07T20:46:35.415Z,8.80
2023-01-07T20:49:03.562Z,8.80
2023-01-07T20:51:31.722Z,8.80
2023-01-07T20:53:59.664Z,8.80
2023-01-07T20:56:31.707Z,8.80
2023-01-07T20:58:59.993Z,8.80
2023-01-07T21:01:28.388Z,8.80
2023-01-07T21:03:58.027Z,8.80
2023-01-07T21:06:25.918Z,8.80
2023-01-07T21:08:53.847Z,8.80
2023-01-07T21:11:23.500Z,8.80
2023-01-07T21:13:56.041Z,8.80
2023-01-07T21:16:24.708Z,8.80
2023-01-07T21:18:52.587Z,8.80
2023-01-07T21:21:25.079Z,8.90
2023-01-07T21:23:54.122Z,8.90
2023-01-07T21:26:22.380Z,8.90
2023-01-07T21:28:53.067Z,8.90
2023-01-07T21:31:21.020Z,8.90
2023-01-07T21:33:49.079Z,9.00
2023-01-07T21:36:18.870Z,9.00
2023-01-07T21:38:52.852Z,9.00
2023-01-07T21:41:21.443Z,8.90
2023-01-07T21:43:49.274Z,8.90
2023-01-07T21:46:17.870Z,8.90
2023-01-07T21:48:47.170Z,9.00
2023-01-07T21:51:17.785Z,9.00
2023-01-07T21:53:46.624Z,9.00
2023-01-07T21:56:17.832Z,9.00
2023-01-07T21:58:46.587Z,9.00
2023-01-07T22:01:14.922Z,9.00
2023-01-07T22:03:45.993Z,9.00
2023-01-07T22:06:18.871Z,9.00
2023-01-07T22:08:46.973Z,9.00
2023-01-07T22:11:17.863Z,9.00
2023-01-07T22:13:45.862Z,9.00
2023-01-07T22:16:13.825Z,8.90
2023-01-07T22:18:41.921Z,8.90
2023-01-07T22:21:09.900Z,8.90
2023-01-07T22:23:38.761Z,8.90
2023-01-07T22:26:08.045Z,8.90
2023-01-07T22:28:38.603Z,8.90
2023-01-07T22:31:14.200Z,8.90
2023-01-07T22:33:42.082Z,8.90
2023-01-07T22:36:11.742Z,8.90
2023-01-07T22:38:40.926Z,8.90
2023-01-07T22:41:10.292Z,8.90
2023-01-07T22:43:40.297Z,8.90
2023-01-07T22:46:12.014Z,8.90
2023-01-07T22:48:40.571Z,8.90
2023-01-07T22:51:15.085Z,8.90
2023-01-07T22:53:44.610Z,8.90
2023-01-07T22:56:14.316Z,8.90
2023-01-07T22:58:43.491Z,8.90
2023-01-07T23:01:14.400Z,8.90
2023-01-07T23:03:43.596Z,8.90
2023-01-07T23:06:13.209Z,8.90
2023-01-07T23:08:41.620Z,8.90
2023-01-07T23:11:10.525Z,8.90
2023-01-07T23:13:38.806Z,8.90
2023-01-07T23:16:08.672Z,8.90
2023-01-07T23:18:36.498Z,8.90
2023-01-07T23:21:05.720Z,8.90
2023-01-07T23:23:33.592Z,8.90
2023-01-07T23:26:01.709Z,8.90
2023-01-07T23:28:29.598Z,8.90
2023-01-07T23:31:01.533Z,8.90
2023-01-07T23:33:30.819Z,8.90
2023-01-07T23:36:03.406Z,8.90
2023-01-07T23:38:31.459Z,8.90
2023-01-07T23:41:03.039Z,8.90
2023-01-07T23:43:31.312Z,8.90
2023-01-07T23:45:59.782Z,8.90
2023-01-07T23:48:28.774Z,8.90
2023-01-07T23:51:03.852Z,8.90
2023-01-07T23:53:31.732Z,8.90
2023-01-07T23:55:59.690Z,8.90
2023-01-07T23:58:27.976Z,9.00
